sensor_id;sensor_type;location;lat;lon;timestamp;P1;durP1;ratioP1;P2;durP2;ratioP2
45676;SDS011;31390;51.186;6.830;2022-10-16T00:01:05;19.95;;;4.00;;
45676;SDS011;31390;51.186;6.830;2022-10-16T00:03:32;5.10;;;2.10;;
45676;SDS011;31390;51.186;6.830;2022-10-16T00:05:59;2.03;;;1.70;;
45676;SDS011;31390;51.186;6.830;2022-10-16T00:08:26;4.53;;;2.20;;
45676;SDS011;31390;51.186;6.830;2022-10-16T00:10:58;2.95;;;2.03;;
45676;SDS011;31390;51.186;6.830;2022-10-16T00:13:25;4.68;;;1.73;;
45676;SDS011;31390;51.186;6.830;2022-10-16T00:15:54;5.03;;;2.20;;
45676;SDS011;31390;51.186;6.830;2022-10-16T00:18:21;7.50;;;2.10;;
45676;SDS011;31390;51.186;6.830;2022-10-16T00:20:47;8.10;;;2.10;;
45676;SDS011;31390;51.186;6.830;2022-10-16T00:23:14;8.70;;;2.17;;
45676;SDS011;31390;51.186;6.830;2022-10-16T00:25:40;5.75;;;2.47;;
45676;SDS011;31390;51.186;6.830;2022-10-16T00:28:07;2.97;;;1.70;;
45676;SDS011;31390;51.186;6.830;2022-10-16T00:30:37;7.25;;;2.40;;
45676;SDS011;31390;51.186;6.830;2022-10-16T00:33:04;4.15;;;1.77;;
45676;SDS011;31390;51.186;6.830;2022-10-16T00:35:30;4.97;;;2.00;;
45676;SDS011;31390;51.186;6.830;2022-10-16T00:37:57;2.13;;;1.80;;
45676;SDS011;31390;51.186;6.830;2022-10-16T00:40:23;3.90;;;1.88;;
45676;SDS011;31390;51.186;6.830;2022-10-16T00:42:50;2.72;;;1.50;;
45676;SDS011;31390;51.186;6.830;2022-10-16T00:45:16;3.92;;;1.92;;
45676;SDS011;31390;51.186;6.830;2022-10-16T00:47:43;3.70;;;2.08;;
45676;SDS011;31390;51.186;6.830;2022-10-16T00:50:27;4.95;;;2.63;;
45676;SDS011;31390;51.186;6.830;2022-10-16T00:52:55;5.88;;;1.90;;
45676;SDS011;31390;51.186;6.830;2022-10-16T00:55:22;2.20;;;1.63;;
45676;SDS011;31390;51.186;6.830;2022-10-16T00:57:49;4.40;;;2.30;;
45676;SDS011;31390;51.186;6.830;2022-10-16T01:00:18;3.15;;;1.73;;
45676;SDS011;31390;51.186;6.830;2022-10-16T01:02:51;4.60;;;2.20;;
45676;SDS011;31390;51.186;6.830;2022-10-16T01:05:17;5.43;;;2.10;;
45676;SDS011;31390;51.186;6.830;2022-10-16T01:07:52;6.18;;;2.15;;
45676;SDS011;31390;51.186;6.830;2022-10-16T01:13:03;2.40;;;1.95;;
45676;SDS011;31390;51.186;6.830;2022-10-16T01:15:52;12.63;;;3.40;;
45676;SDS011;31390;51.186;6.830;2022-10-16T01:24:25;2.40;;;2.10;;
45676;SDS011;31390;51.186;6.830;2022-10-16T01:31:30;6.30;;;2.38;;
45676;SDS011;31390;51.186;6.830;2022-10-16T01:34:15;6.80;;;2.38;;
45676;SDS011;31390;51.186;6.830;2022-10-16T01:36:53;13.88;;;3.25;;
45676;SDS011;31390;51.186;6.830;2022-10-16T01:39:23;4.50;;;1.80;;
45676;SDS011;31390;51.186;6.830;2022-10-16T01:42:01;7.57;;;3.05;;
45676;SDS011;31390;51.186;6.830;2022-10-16T01:44:31;3.70;;;1.90;;
45676;SDS011;31390;51.186;6.830;2022-10-16T01:46:58;7.53;;;2.78;;
45676;SDS011;31390;51.186;6.830;2022-10-16T01:49:26;6.03;;;2.60;;
45676;SDS011;31390;51.186;6.830;2022-10-16T01:51:55;3.08;;;2.00;;
45676;SDS011;31390;51.186;6.830;2022-10-16T01:54:23;8.50;;;2.70;;
45676;SDS011;31390;51.186;6.830;2022-10-16T01:56:51;8.85;;;3.00;;
45676;SDS011;31390;51.186;6.830;2022-10-16T01:59:19;3.85;;;2.50;;
45676;SDS011;31390;51.186;6.830;2022-10-16T02:01:48;7.07;;;2.90;;
45676;SDS011;31390;51.186;6.830;2022-10-16T02:04:18;6.32;;;3.08;;
45676;SDS011;31390;51.186;6.830;2022-10-16T02:06:46;12.50;;;4.00;;
45676;SDS011;31390;51.186;6.830;2022-10-16T02:09:13;4.00;;;2.50;;
45676;SDS011;31390;51.186;6.830;2022-10-16T02:11:42;7.50;;;2.97;;
45676;SDS011;31390;51.186;6.830;2022-10-16T02:14:08;4.45;;;2.88;;
45676;SDS011;31390;51.186;6.830;2022-10-16T02:16:37;5.63;;;3.15;;
45676;SDS011;31390;51.186;6.830;2022-10-16T02:19:05;29.48;;;6.55;;
45676;SDS011;31390;51.186;6.830;2022-10-16T02:21:40;6.75;;;2.72;;
45676;SDS011;31390;51.186;6.830;2022-10-16T02:27:08;7.97;;;3.17;;
45676;SDS011;31390;51.186;6.830;2022-10-16T02:29:39;8.95;;;3.05;;
45676;SDS011;31390;51.186;6.830;2022-10-16T02:32:12;9.18;;;2.80;;
45676;SDS011;31390;51.186;6.830;2022-10-16T02:34:39;5.28;;;2.60;;
45676;SDS011;31390;51.186;6.830;2022-10-16T02:37:07;7.00;;;2.88;;
45676;SDS011;31390;51.186;6.830;2022-10-16T02:39:34;4.60;;;2.78;;
45676;SDS011;31390;51.186;6.830;2022-10-16T02:42:01;2.50;;;2.30;;
45676;SDS011;31390;51.186;6.830;2022-10-16T02:44:27;4.60;;;2.58;;
45676;SDS011;31390;51.186;6.830;2022-10-16T02:46:54;5.47;;;2.20;;
45676;SDS011;31390;51.186;6.830;2022-10-16T02:49:20;4.45;;;2.15;;
45676;SDS011;31390;51.186;6.830;2022-10-16T02:51:48;3.92;;;1.75;;
45676;SDS011;31390;51.186;6.830;2022-10-16T02:54:15;12.07;;;3.55;;
45676;SDS011;31390;51.186;6.830;2022-10-16T02:56:44;4.72;;;2.78;;
45676;SDS011;31390;51.186;6.830;2022-10-16T02:59:11;9.07;;;3.30;;
45676;SDS011;31390;51.186;6.830;2022-10-16T03:01:37;3.63;;;2.25;;
45676;SDS011;31390;51.186;6.830;2022-10-16T03:04:04;2.85;;;2.05;;
45676;SDS011;31390;51.186;6.830;2022-10-16T03:06:31;7.25;;;2.00;;
45676;SDS011;31390;51.186;6.830;2022-10-16T03:08:58;9.85;;;2.22;;
45676;SDS011;31390;51.186;6.830;2022-10-16T03:11:25;2.40;;;1.55;;
45676;SDS011;31390;51.186;6.830;2022-10-16T03:13:52;6.60;;;2.05;;
45676;SDS011;31390;51.186;6.830;2022-10-16T03:16:19;3.17;;;1.75;;
45676;SDS011;31390;51.186;6.830;2022-10-16T03:18:49;4.72;;;1.52;;
45676;SDS011;31390;51.186;6.830;2022-10-16T03:21:16;6.07;;;1.83;;
45676;SDS011;31390;51.186;6.830;2022-10-16T03:23:43;3.47;;;1.73;;
45676;SDS011;31390;51.186;6.830;2022-10-16T03:26:09;2.00;;;1.70;;
45676;SDS011;31390;51.186;6.830;2022-10-16T03:28:36;9.55;;;1.90;;
45676;SDS011;31390;51.186;6.830;2022-10-16T03:31:02;2.65;;;1.60;;
45676;SDS011;31390;51.186;6.830;2022-10-16T03:33:31;4.85;;;1.60;;
45676;SDS011;31390;51.186;6.830;2022-10-16T03:35:58;4.72;;;1.98;;
45676;SDS011;31390;51.186;6.830;2022-10-16T03:38:24;7.53;;;2.00;;
45676;SDS011;31390;51.186;6.830;2022-10-16T03:40:51;1.55;;;1.20;;
45676;SDS011;31390;51.186;6.830;2022-10-16T03:43:17;2.75;;;1.95;;
45676;SDS011;31390;51.186;6.830;2022-10-16T03:45:44;2.65;;;1.50;;
45676;SDS011;31390;51.186;6.830;2022-10-16T03:48:11;5.32;;;1.55;;
45676;SDS011;31390;51.186;6.830;2022-10-16T03:50:37;5.00;;;1.70;;
45676;SDS011;31390;51.186;6.830;2022-10-16T03:53:06;6.10;;;2.30;;
45676;SDS011;31390;51.186;6.830;2022-10-16T03:55:32;3.20;;;1.80;;
45676;SDS011;31390;51.186;6.830;2022-10-16T03:58:02;2.67;;;1.67;;
45676;SDS011;31390;51.186;6.830;2022-10-16T04:00:28;2.72;;;1.60;;
45676;SDS011;31390;51.186;6.830;2022-10-16T04:02:55;3.08;;;1.58;;
45676;SDS011;31390;51.186;6.830;2022-10-16T04:05:21;4.88;;;1.90;;
45676;SDS011;31390;51.186;6.830;2022-10-16T04:07:49;1.95;;;1.30;;
45676;SDS011;31390;51.186;6.830;2022-10-16T04:10:15;2.05;;;1.20;;
45676;SDS011;31390;51.186;6.830;2022-10-16T04:12:42;5.88;;;1.70;;
45676;SDS011;31390;51.186;6.830;2022-10-16T04:15:09;4.00;;;1.60;;
45676;SDS011;31390;51.186;6.830;2022-10-16T04:17:36;4.47;;;1.70;;
45676;SDS011;31390;51.186;6.830;2022-10-16T04:20:02;2.35;;;1.38;;
45676;SDS011;31390;51.186;6.830;2022-10-16T04:22:29;3.38;;;1.70;;
45676;SDS011;31390;51.186;6.830;2022-10-16T04:24:57;5.68;;;1.70;;
45676;SDS011;31390;51.186;6.830;2022-10-16T04:27:24;5.32;;;1.70;;
45676;SDS011;31390;51.186;6.830;2022-10-16T04:29:51;2.92;;;1.23;;
45676;SDS011;31390;51.186;6.830;2022-10-16T04:32:17;5.10;;;1.42;;
45676;SDS011;31390;51.186;6.830;2022-10-16T04:34:51;4.20;;;1.50;;
45676;SDS011;31390;51.186;6.830;2022-10-16T04:37:18;3.08;;;1.38;;
45676;SDS011;31390;51.186;6.830;2022-10-16T04:39:45;3.45;;;1.30;;
45676;SDS011;31390;51.186;6.830;2022-10-16T04:42:11;2.65;;;1.50;;
45676;SDS011;31390;51.186;6.830;2022-10-16T04:44:38;1.75;;;1.20;;
45676;SDS011;31390;51.186;6.830;2022-10-16T04:47:05;1.48;;;1.23;;
45676;SDS011;31390;51.186;6.830;2022-10-16T04:49:31;7.03;;;1.55;;
45676;SDS011;31390;51.186;6.830;2022-10-16T04:51:58;4.28;;;1.40;;
45676;SDS011;31390;51.186;6.830;2022-10-16T04:54:24;2.08;;;1.02;;
45676;SDS011;31390;51.186;6.830;2022-10-16T04:56:51;4.57;;;1.60;;
45676;SDS011;31390;51.186;6.830;2022-10-16T04:59:18;1.33;;;1.10;;
45676;SDS011;31390;51.186;6.830;2022-10-16T05:01:45;7.28;;;1.42;;
45676;SDS011;31390;51.186;6.830;2022-10-16T05:04:12;3.95;;;1.40;;
45676;SDS011;31390;51.186;6.830;2022-10-16T05:06:39;7.57;;;1.50;;
45676;SDS011;31390;51.186;6.830;2022-10-16T05:09:06;4.50;;;1.55;;
45676;SDS011;31390;51.186;6.830;2022-10-16T05:11:32;2.13;;;1.40;;
45676;SDS011;31390;51.186;6.830;2022-10-16T05:14:00;2.60;;;1.00;;
45676;SDS011;31390;51.186;6.830;2022-10-16T05:16:27;2.67;;;1.70;;
45676;SDS011;31390;51.186;6.830;2022-10-16T05:18:55;2.55;;;1.52;;
45676;SDS011;31390;51.186;6.830;2022-10-16T05:21:44;1.45;;;1.02;;
45676;SDS011;31390;51.186;6.830;2022-10-16T05:24:11;1.20;;;0.88;;
45676;SDS011;31390;51.186;6.830;2022-10-16T05:26:37;1.73;;;1.25;;
45676;SDS011;31390;51.186;6.830;2022-10-16T05:29:04;2.08;;;1.20;;
45676;SDS011;31390;51.186;6.830;2022-10-16T05:31:31;6.25;;;1.90;;
45676;SDS011;31390;51.186;6.830;2022-10-16T05:33:58;3.55;;;1.40;;
45676;SDS011;31390;51.186;6.830;2022-10-16T05:36:25;3.10;;;1.73;;
45676;SDS011;31390;51.186;6.830;2022-10-16T05:38:52;9.02;;;1.92;;
45676;SDS011;31390;51.186;6.830;2022-10-16T05:41:18;1.48;;;1.00;;
45676;SDS011;31390;51.186;6.830;2022-10-16T05:43:49;6.70;;;1.73;;
45676;SDS011;31390;51.186;6.830;2022-10-16T05:46:16;2.97;;;1.52;;
45676;SDS011;31390;51.186;6.830;2022-10-16T05:48:43;4.20;;;1.80;;
45676;SDS011;31390;51.186;6.830;2022-10-16T05:51:10;6.22;;;1.60;;
45676;SDS011;31390;51.186;6.830;2022-10-16T05:53:38;11.05;;;1.90;;
45676;SDS011;31390;51.186;6.830;2022-10-16T05:56:05;3.47;;;1.42;;
45676;SDS011;31390;51.186;6.830;2022-10-16T05:58:33;1.83;;;1.50;;
45676;SDS011;31390;51.186;6.830;2022-10-16T06:01:02;1.95;;;1.42;;
45676;SDS011;31390;51.186;6.830;2022-10-16T06:03:28;4.07;;;1.50;;
45676;SDS011;31390;51.186;6.830;2022-10-16T06:05:55;1.70;;;1.60;;
45676;SDS011;31390;51.186;6.830;2022-10-16T06:08:22;1.60;;;1.50;;
45676;SDS011;31390;51.186;6.830;2022-10-16T06:10:57;5.25;;;1.90;;
45676;SDS011;31390;51.186;6.830;2022-10-16T06:13:26;4.63;;;1.55;;
45676;SDS011;31390;51.186;6.830;2022-10-16T06:15:52;3.78;;;1.80;;
45676;SDS011;31390;51.186;6.830;2022-10-16T06:18:18;4.75;;;1.92;;
45676;SDS011;31390;51.186;6.830;2022-10-16T06:20:45;4.05;;;1.83;;
45676;SDS011;31390;51.186;6.830;2022-10-16T06:23:12;3.47;;;1.83;;
45676;SDS011;31390;51.186;6.830;2022-10-16T06:25:38;3.08;;;1.70;;
45676;SDS011;31390;51.186;6.830;2022-10-16T06:28:05;3.63;;;1.75;;
45676;SDS011;31390;51.186;6.830;2022-10-16T06:30:31;3.20;;;1.98;;
45676;SDS011;31390;51.186;6.830;2022-10-16T06:32:58;3.05;;;2.08;;
45676;SDS011;31390;51.186;6.830;2022-10-16T06:35:24;4.53;;;3.20;;
45676;SDS011;31390;51.186;6.830;2022-10-16T06:37:52;6.80;;;3.28;;
45676;SDS011;31390;51.186;6.830;2022-10-16T06:40:20;4.15;;;3.00;;
45676;SDS011;31390;51.186;6.830;2022-10-16T06:42:48;7.32;;;2.55;;
45676;SDS011;31390;51.186;6.830;2022-10-16T06:45:14;2.38;;;2.17;;
45676;SDS011;31390;51.186;6.830;2022-10-16T06:47:41;6.10;;;3.00;;
45676;SDS011;31390;51.186;6.830;2022-10-16T06:50:09;8.30;;;4.97;;
45676;SDS011;31390;51.186;6.830;2022-10-16T06:52:36;4.93;;;2.20;;
45676;SDS011;31390;51.186;6.830;2022-10-16T06:55:03;5.28;;;3.03;;
45676;SDS011;31390;51.186;6.830;2022-10-16T06:57:32;11.23;;;9.55;;
45676;SDS011;31390;51.186;6.830;2022-10-16T06:59:59;14.48;;;9.52;;
45676;SDS011;31390;51.186;6.830;2022-10-16T07:02:25;14.23;;;11.05;;
45676;SDS011;31390;51.186;6.830;2022-10-16T07:04:52;14.73;;;11.40;;
45676;SDS011;31390;51.186;6.830;2022-10-16T07:07:19;7.55;;;6.32;;
45676;SDS011;31390;51.186;6.830;2022-10-16T07:09:47;11.60;;;7.70;;
45676;SDS011;31390;51.186;6.830;2022-10-16T07:12:14;7.20;;;5.88;;
45676;SDS011;31390;51.186;6.830;2022-10-16T07:14:41;5.22;;;3.97;;
45676;SDS011;31390;51.186;6.830;2022-10-16T07:17:08;7.35;;;3.17;;
45676;SDS011;31390;51.186;6.830;2022-10-16T07:19:35;6.50;;;2.08;;
45676;SDS011;31390;51.186;6.830;2022-10-16T07:22:02;2.40;;;1.77;;
45676;SDS011;31390;51.186;6.830;2022-10-16T07:24:29;2.53;;;1.83;;
45676;SDS011;31390;51.186;6.830;2022-10-16T07:26:57;3.50;;;2.05;;
45676;SDS011;31390;51.186;6.830;2022-10-16T07:29:32;2.45;;;1.92;;
45676;SDS011;31390;51.186;6.830;2022-10-16T07:31:59;3.83;;;1.80;;
45676;SDS011;31390;51.186;6.830;2022-10-16T07:34:29;1.58;;;1.48;;
45676;SDS011;31390;51.186;6.830;2022-10-16T07:36:55;3.13;;;1.48;;
45676;SDS011;31390;51.186;6.830;2022-10-16T07:39:25;3.78;;;1.70;;
45676;SDS011;31390;51.186;6.830;2022-10-16T07:41:52;1.65;;;1.50;;
45676;SDS011;31390;51.186;6.830;2022-10-16T07:44:22;3.00;;;1.58;;
45676;SDS011;31390;51.186;6.830;2022-10-16T07:46:52;2.97;;;1.50;;
45676;SDS011;31390;51.186;6.830;2022-10-16T07:49:19;4.53;;;3.55;;
45676;SDS011;31390;51.186;6.830;2022-10-16T07:51:45;2.45;;;2.25;;
45676;SDS011;31390;51.186;6.830;2022-10-16T07:54:12;6.53;;;5.28;;
45676;SDS011;31390;51.186;6.830;2022-10-16T07:56:39;2.33;;;1.88;;
45676;SDS011;31390;51.186;6.830;2022-10-16T07:59:09;2.85;;;1.98;;
45676;SDS011;31390;51.186;6.830;2022-10-16T08:01:37;2.58;;;1.60;;
45676;SDS011;31390;51.186;6.830;2022-10-16T08:04:05;4.32;;;2.50;;
45676;SDS011;31390;51.186;6.830;2022-10-16T08:06:34;4.32;;;2.53;;
45676;SDS011;31390;51.186;6.830;2022-10-16T08:09:01;5.60;;;4.43;;
45676;SDS011;31390;51.186;6.830;2022-10-16T08:11:28;10.10;;;1.85;;
45676;SDS011;31390;51.186;6.830;2022-10-16T08:13:57;2.75;;;1.40;;
45676;SDS011;31390;51.186;6.830;2022-10-16T08:16:23;11.60;;;2.45;;
45676;SDS011;31390;51.186;6.830;2022-10-16T08:18:50;1.88;;;1.50;;
45676;SDS011;31390;51.186;6.830;2022-10-16T08:21:19;4.00;;;1.60;;
45676;SDS011;31390;51.186;6.830;2022-10-16T08:23:47;2.60;;;1.50;;
45676;SDS011;31390;51.186;6.830;2022-10-16T08:26:24;4.55;;;1.70;;
45676;SDS011;31390;51.186;6.830;2022-10-16T08:28:52;2.55;;;1.88;;
45676;SDS011;31390;51.186;6.830;2022-10-16T08:31:19;4.50;;;1.60;;
45676;SDS011;31390;51.186;6.830;2022-10-16T08:33:47;2.35;;;1.60;;
45676;SDS011;31390;51.186;6.830;2022-10-16T08:36:15;2.72;;;2.00;;
45676;SDS011;31390;51.186;6.830;2022-10-16T08:38:41;2.85;;;1.50;;
45676;SDS011;31390;51.186;6.830;2022-10-16T08:43:58;4.13;;;1.50;;
45676;SDS011;31390;51.186;6.830;2022-10-16T08:47:11;2.90;;;1.42;;
45676;SDS011;31390;51.186;6.830;2022-10-16T08:49:14;3.28;;;1.83;;
45676;SDS011;31390;51.186;6.830;2022-10-16T08:51:41;3.10;;;1.60;;
45676;SDS011;31390;51.186;6.830;2022-10-16T08:57:21;2.10;;;1.65;;
45676;SDS011;31390;51.186;6.830;2022-10-16T08:59:50;1.88;;;1.35;;
45676;SDS011;31390;51.186;6.830;2022-10-16T09:05:02;2.47;;;1.40;;
45676;SDS011;31390;51.186;6.830;2022-10-16T09:10:31;2.10;;;1.45;;
45676;SDS011;31390;51.186;6.830;2022-10-16T09:15:46;2.03;;;1.25;;
45676;SDS011;31390;51.186;6.830;2022-10-16T09:23:14;2.83;;;1.45;;
45676;SDS011;31390;51.186;6.830;2022-10-16T09:25:45;3.88;;;1.40;;
45676;SDS011;31390;51.186;6.830;2022-10-16T09:28:14;3.55;;;1.33;;
45676;SDS011;31390;51.186;6.830;2022-10-16T09:30:41;1.98;;;0.90;;
45676;SDS011;31390;51.186;6.830;2022-10-16T09:33:09;2.75;;;0.85;;
45676;SDS011;31390;51.186;6.830;2022-10-16T09:35:37;3.88;;;1.15;;
45676;SDS011;31390;51.186;6.830;2022-10-16T09:38:04;1.83;;;1.10;;
45676;SDS011;31390;51.186;6.830;2022-10-16T09:40:37;2.47;;;1.00;;
45676;SDS011;31390;51.186;6.830;2022-10-16T09:43:22;7.80;;;1.08;;
45676;SDS011;31390;51.186;6.830;2022-10-16T09:45:57;3.95;;;1.05;;
45676;SDS011;31390;51.186;6.830;2022-10-16T09:48:25;2.60;;;0.90;;
45676;SDS011;31390;51.186;6.830;2022-10-16T09:50:56;1.55;;;1.10;;
45676;SDS011;31390;51.186;6.830;2022-10-16T09:53:23;2.72;;;0.63;;
45676;SDS011;31390;51.186;6.830;2022-10-16T09:55:51;5.38;;;1.10;;
45676;SDS011;31390;51.186;6.830;2022-10-16T09:58:17;3.33;;;1.15;;
45676;SDS011;31390;51.186;6.830;2022-10-16T10:00:48;4.80;;;1.17;;
45676;SDS011;31390;51.186;6.830;2022-10-16T10:03:58;7.32;;;1.13;;
45676;SDS011;31390;51.186;6.830;2022-10-16T10:06:22;3.05;;;0.88;;
45676;SDS011;31390;51.186;6.830;2022-10-16T10:08:58;3.92;;;1.10;;
45676;SDS011;31390;51.186;6.830;2022-10-16T10:14:24;3.75;;;0.75;;
45676;SDS011;31390;51.186;6.830;2022-10-16T10:16:52;4.50;;;0.80;;
45676;SDS011;31390;51.186;6.830;2022-10-16T10:19:27;2.88;;;0.80;;
45676;SDS011;31390;51.186;6.830;2022-10-16T10:21:58;3.97;;;0.80;;
45676;SDS011;31390;51.186;6.830;2022-10-16T10:24:24;2.50;;;0.88;;
45676;SDS011;31390;51.186;6.830;2022-10-16T10:26:56;1.70;;;0.70;;
45676;SDS011;31390;51.186;6.830;2022-10-16T10:34:57;1.20;;;0.73;;
45676;SDS011;31390;51.186;6.830;2022-10-16T10:37:37;4.63;;;0.93;;
45676;SDS011;31390;51.186;6.830;2022-10-16T10:40:15;3.55;;;0.88;;
45676;SDS011;31390;51.186;6.830;2022-10-16T10:42:51;1.85;;;0.70;;
45676;SDS011;31390;51.186;6.830;2022-10-16T10:45:25;1.63;;;0.70;;
45676;SDS011;31390;51.186;6.830;2022-10-16T10:47:58;3.17;;;0.90;;
45676;SDS011;31390;51.186;6.830;2022-10-16T10:50:37;1.90;;;0.60;;
45676;SDS011;31390;51.186;6.830;2022-10-16T10:53:17;1.85;;;0.80;;
45676;SDS011;31390;51.186;6.830;2022-10-16T10:55:54;1.73;;;0.90;;
45676;SDS011;31390;51.186;6.830;2022-10-16T11:01:14;1.60;;;0.70;;
45676;SDS011;31390;51.186;6.830;2022-10-16T11:06:26;1.80;;;0.98;;
45676;SDS011;31390;51.186;6.830;2022-10-16T11:08:59;1.98;;;0.68;;
45676;SDS011;31390;51.186;6.830;2022-10-16T11:14:00;1.92;;;0.70;;
45676;SDS011;31390;51.186;6.830;2022-10-16T11:16:38;5.85;;;1.10;;
45676;SDS011;31390;51.186;6.830;2022-10-16T11:19:11;2.33;;;0.60;;
45676;SDS011;31390;51.186;6.830;2022-10-16T11:21:42;2.35;;;0.80;;
45676;SDS011;31390;51.186;6.830;2022-10-16T11:24:15;2.20;;;0.70;;
45676;SDS011;31390;51.186;6.830;2022-10-16T11:26:43;1.65;;;0.77;;
45676;SDS011;31390;51.186;6.830;2022-10-16T11:29:23;1.52;;;0.60;;
45676;SDS011;31390;51.186;6.830;2022-10-16T11:31:53;3.33;;;0.70;;
45676;SDS011;31390;51.186;6.830;2022-10-16T11:34:22;2.35;;;0.55;;
45676;SDS011;31390;51.186;6.830;2022-10-16T11:37:16;2.67;;;0.88;;
45676;SDS011;31390;51.186;6.830;2022-10-16T11:39:43;2.53;;;1.00;;
45676;SDS011;31390;51.186;6.830;2022-10-16T11:42:19;1.67;;;0.70;;
45676;SDS011;31390;51.186;6.830;2022-10-16T11:45:00;1.85;;;0.73;;
45676;SDS011;31390;51.186;6.830;2022-10-16T11:55:47;2.70;;;0.90;;
45676;SDS011;31390;51.186;6.830;2022-10-16T12:01:24;3.17;;;0.90;;
45676;SDS011;31390;51.186;6.830;2022-10-16T12:06:48;3.90;;;0.80;;
45676;SDS011;31390;51.186;6.830;2022-10-16T12:09:30;3.08;;;1.00;;
45676;SDS011;31390;51.186;6.830;2022-10-16T12:11:58;2.38;;;1.00;;
45676;SDS011;31390;51.186;6.830;2022-10-16T12:16:58;2.78;;;1.70;;
45676;SDS011;31390;51.186;6.830;2022-10-16T12:19:28;1.35;;;0.68;;
45676;SDS011;31390;51.186;6.830;2022-10-16T12:21:57;2.63;;;0.68;;
45676;SDS011;31390;51.186;6.830;2022-10-16T12:24:39;2.00;;;0.65;;
45676;SDS011;31390;51.186;6.830;2022-10-16T12:30:00;1.90;;;0.80;;
45676;SDS011;31390;51.186;6.830;2022-10-16T12:35:22;3.78;;;0.70;;
45676;SDS011;31390;51.186;6.830;2022-10-16T12:37:50;0.88;;;0.63;;
45676;SDS011;31390;51.186;6.830;2022-10-16T12:40:24;1.63;;;1.00;;
45676;SDS011;31390;51.186;6.830;2022-10-16T12:42:53;18.77;;;9.70;;
45676;SDS011;31390;51.186;6.830;2022-10-16T12:45:29;4.82;;;1.20;;
45676;SDS011;31390;51.186;6.830;2022-10-16T12:48:00;3.25;;;0.73;;
45676;SDS011;31390;51.186;6.830;2022-10-16T12:50:38;1.77;;;0.60;;
45676;SDS011;31390;51.186;6.830;2022-10-16T12:53:18;1.95;;;0.80;;
45676;SDS011;31390;51.186;6.830;2022-10-16T12:55:55;1.23;;;0.65;;
45676;SDS011;31390;51.186;6.830;2022-10-16T13:03:54;4.30;;;1.20;;
45676;SDS011;31390;51.186;6.830;2022-10-16T13:07:11;1.42;;;0.70;;
45676;SDS011;31390;51.186;6.830;2022-10-16T13:22:22;6.18;;;1.20;;
45676;SDS011;31390;51.186;6.830;2022-10-16T13:27:30;1.13;;;0.80;;
45676;SDS011;31390;51.186;6.830;2022-10-16T13:30:02;1.20;;;0.80;;
45676;SDS011;31390;51.186;6.830;2022-10-16T13:32:34;1.33;;;0.70;;
45676;SDS011;31390;51.186;6.830;2022-10-16T13:35:01;2.97;;;1.02;;
45676;SDS011;31390;51.186;6.830;2022-10-16T13:37:27;2.95;;;0.98;;
45676;SDS011;31390;51.186;6.830;2022-10-16T13:42:40;3.08;;;1.10;;
45676;SDS011;31390;51.186;6.830;2022-10-16T13:45:17;3.47;;;1.10;;
45676;SDS011;31390;51.186;6.830;2022-10-16T13:47:44;3.40;;;0.90;;
45676;SDS011;31390;51.186;6.830;2022-10-16T13:50:16;3.17;;;1.02;;
45676;SDS011;31390;51.186;6.830;2022-10-16T13:52:44;24.42;;;3.72;;
45676;SDS011;31390;51.186;6.830;2022-10-16T13:55:14;1.65;;;0.98;;
45676;SDS011;31390;51.186;6.830;2022-10-16T13:57:42;2.35;;;0.77;;
45676;SDS011;31390;51.186;6.830;2022-10-16T14:02:44;4.85;;;0.95;;
45676;SDS011;31390;51.186;6.830;2022-10-16T14:05:12;4.82;;;1.23;;
45676;SDS011;31390;51.186;6.830;2022-10-16T14:07:40;3.40;;;0.90;;
45676;SDS011;31390;51.186;6.830;2022-10-16T14:10:18;2.17;;;0.50;;
45676;SDS011;31390;51.186;6.830;2022-10-16T14:12:53;1.45;;;0.80;;
45676;SDS011;31390;51.186;6.830;2022-10-16T14:15:21;3.70;;;0.80;;
45676;SDS011;31390;51.186;6.830;2022-10-16T14:17:49;3.20;;;0.93;;
45676;SDS011;31390;51.186;6.830;2022-10-16T14:20:17;1.63;;;0.70;;
45676;SDS011;31390;51.186;6.830;2022-10-16T14:22:44;1.52;;;0.80;;
45676;SDS011;31390;51.186;6.830;2022-10-16T14:27:44;1.33;;;0.80;;
45676;SDS011;31390;51.186;6.830;2022-10-16T14:30:12;1.40;;;0.80;;
45676;SDS011;31390;51.186;6.830;2022-10-16T14:32:41;2.67;;;0.77;;
45676;SDS011;31390;51.186;6.830;2022-10-16T14:38:05;3.20;;;0.90;;
45676;SDS011;31390;51.186;6.830;2022-10-16T14:40:35;1.55;;;0.60;;
45676;SDS011;31390;51.186;6.830;2022-10-16T14:43:04;1.92;;;0.70;;
45676;SDS011;31390;51.186;6.830;2022-10-16T14:45:33;0.70;;;0.52;;
45676;SDS011;31390;51.186;6.830;2022-10-16T14:48:03;1.52;;;0.80;;
45676;SDS011;31390;51.186;6.830;2022-10-16T14:50:32;1.25;;;0.60;;
45676;SDS011;31390;51.186;6.830;2022-10-16T14:52:58;1.33;;;0.68;;
45676;SDS011;31390;51.186;6.830;2022-10-16T14:55:25;4.57;;;0.57;;
45676;SDS011;31390;51.186;6.830;2022-10-16T14:57:52;4.03;;;0.80;;
45676;SDS011;31390;51.186;6.830;2022-10-16T15:00:26;2.60;;;0.60;;
45676;SDS011;31390;51.186;6.830;2022-10-16T15:02:53;2.45;;;0.77;;
45676;SDS011;31390;51.186;6.830;2022-10-16T15:05:23;0.93;;;0.50;;
45676;SDS011;31390;51.186;6.830;2022-10-16T15:07:51;6.53;;;1.23;;
45676;SDS011;31390;51.186;6.830;2022-10-16T15:10:22;1.77;;;0.80;;
45676;SDS011;31390;51.186;6.830;2022-10-16T15:12:48;1.45;;;0.70;;
45676;SDS011;31390;51.186;6.830;2022-10-16T15:15:21;1.70;;;0.75;;
45676;SDS011;31390;51.186;6.830;2022-10-16T15:17:50;2.97;;;1.13;;
45676;SDS011;31390;51.186;6.830;2022-10-16T15:20:19;2.78;;;0.98;;
45676;SDS011;31390;51.186;6.830;2022-10-16T15:22:46;2.67;;;1.60;;
45676;SDS011;31390;51.186;6.830;2022-10-16T15:27:49;1.65;;;1.50;;
45676;SDS011;31390;51.186;6.830;2022-10-16T15:30:16;6.40;;;1.70;;
45676;SDS011;31390;51.186;6.830;2022-10-16T15:32:42;2.95;;;1.58;;
45676;SDS011;31390;51.186;6.830;2022-10-16T15:35:09;2.72;;;1.10;;
45676;SDS011;31390;51.186;6.830;2022-10-16T15:37:35;1.60;;;0.90;;
45676;SDS011;31390;51.186;6.830;2022-10-16T15:40:02;1.55;;;0.98;;
45676;SDS011;31390;51.186;6.830;2022-10-16T15:42:29;2.53;;;1.00;;
45676;SDS011;31390;51.186;6.830;2022-10-16T15:44:56;3.90;;;1.10;;
45676;SDS011;31390;51.186;6.830;2022-10-16T15:47:22;6.15;;;1.38;;
45676;SDS011;31390;51.186;6.830;2022-10-16T15:49:49;7.80;;;1.90;;
45676;SDS011;31390;51.186;6.830;2022-10-16T15:52:15;1.38;;;0.88;;
45676;SDS011;31390;51.186;6.830;2022-10-16T15:54:43;1.95;;;0.63;;
45676;SDS011;31390;51.186;6.830;2022-10-16T15:57:11;2.75;;;0.75;;
45676;SDS011;31390;51.186;6.830;2022-10-16T15:59:38;1.65;;;0.90;;
45676;SDS011;31390;51.186;6.830;2022-10-16T16:02:04;2.13;;;1.02;;
45676;SDS011;31390;51.186;6.830;2022-10-16T16:04:31;3.70;;;1.42;;
45676;SDS011;31390;51.186;6.830;2022-10-16T16:07:09;3.92;;;0.90;;
45676;SDS011;31390;51.186;6.830;2022-10-16T16:09:36;5.55;;;1.42;;
45676;SDS011;31390;51.186;6.830;2022-10-16T16:12:02;7.25;;;1.20;;
45676;SDS011;31390;51.186;6.830;2022-10-16T16:14:29;2.50;;;1.00;;
45676;SDS011;31390;51.186;6.830;2022-10-16T16:16:56;1.52;;;0.93;;
45676;SDS011;31390;51.186;6.830;2022-10-16T16:19:23;3.70;;;1.30;;
45676;SDS011;31390;51.186;6.830;2022-10-16T16:21:50;2.67;;;1.23;;
45676;SDS011;31390;51.186;6.830;2022-10-16T16:24:16;2.13;;;0.90;;
45676;SDS011;31390;51.186;6.830;2022-10-16T16:26:43;1.42;;;0.88;;
45676;SDS011;31390;51.186;6.830;2022-10-16T16:29:13;2.10;;;0.77;;
45676;SDS011;31390;51.186;6.830;2022-10-16T16:31:40;5.28;;;1.13;;
45676;SDS011;31390;51.186;6.830;2022-10-16T16:34:07;1.55;;;0.80;;
45676;SDS011;31390;51.186;6.830;2022-10-16T16:36:35;10.02;;;1.45;;
45676;SDS011;31390;51.186;6.830;2022-10-16T16:39:01;7.88;;;1.25;;
45676;SDS011;31390;51.186;6.830;2022-10-16T16:41:29;5.38;;;1.20;;
45676;SDS011;31390;51.186;6.830;2022-10-16T16:44:03;2.42;;;0.90;;
45676;SDS011;31390;51.186;6.830;2022-10-16T16:46:30;3.45;;;1.27;;
45676;SDS011;31390;51.186;6.830;2022-10-16T16:48:57;2.15;;;1.00;;